createdAt,value
2016-10-19T10:46:59.096Z,61.55
2016-10-19T10:47:24.735Z,61.25
2016-10-19T10:47:50.305Z,61.65
2016-10-19T10:48:15.852Z,61.55
2016-10-19T10:48:41.421Z,60.97
2016-10-19T10:49:07.005Z,61.19
2016-10-19T10:49:32.555Z,61.48
2016-10-19T10:49:58.129Z,61
2016-10-19T10:50:23.693Z,60.8
2016-10-19T10:50:49.270Z,60.9
2016-10-19T10:51:14.819Z,61
2016-10-19T10:51:40.385Z,60.42
2016-10-19T10:52:05.948Z,60.13
2016-10-19T10:52:31.538Z,60.52
2016-10-19T10:52:57.128Z,60.42
2016-10-19T10:53:22.718Z,59.84
2016-10-19T10:53:48.290Z,60.23
2016-10-19T10:54:13.861Z,60.03
2016-10-19T10:54:39.397Z,59.55
2016-10-19T10:55:05.059Z,59.45
2016-10-19T10:55:30.654Z,59.36
2016-10-19T10:55:56.224Z,59.36
2016-10-19T10:56:21.832Z,59.78
2016-10-19T10:57:25.124Z,59.1
2016-10-19T10:57:50.645Z,59.3
2016-10-19T10:58:16.175Z,59.39
2016-10-19T10:58:41.740Z,58.81
2016-10-19T10:59:07.276Z,58.42
2016-10-19T10:59:32.872Z,58.52
2016-10-19T10:59:58.412Z,58.33
2016-10-19T11:00:23.943Z,59.03
2016-10-19T11:00:49.476Z,58.45
2016-10-19T11:01:15.025Z,58.55
2016-10-19T11:01:40.630Z,58.75
2016-10-19T11:02:06.163Z,58.75
2016-10-19T11:02:31.718Z,58.84
2016-10-19T11:02:57.267Z,58.55
2016-10-19T11:03:22.804Z,58.65
2016-10-19T11:03:48.344Z,58.84
2016-10-19T11:04:13.898Z,58.26
2016-10-19T11:04:39.520Z,57.97
2016-10-19T11:05:05.051Z,58.17
2016-10-19T11:05:30.593Z,57.87
2016-10-19T11:05:56.114Z,57.87
2016-10-19T11:06:21.656Z,57.68
2016-10-19T11:06:47.343Z,57.97
2016-10-19T11:07:12.875Z,57.68
2016-10-19T11:07:38.413Z,57.97
2016-10-19T11:08:03.974Z,58.07
2016-10-19T11:08:29.532Z,58.17
2016-10-19T11:08:55.086Z,57.97
2016-10-19T11:09:20.656Z,58.17
2016-10-19T11:09:46.226Z,58.07
2016-10-19T11:10:11.808Z,58.17
2016-10-19T11:10:37.468Z,58.36
2016-10-19T11:11:03.034Z,57.97
2016-10-19T11:11:28.584Z,58.36
2016-10-19T11:11:54.157Z,58.75
2016-10-19T11:12:19.698Z,58.75
2016-10-19T11:12:45.334Z,58.55
2016-10-19T11:13:10.883Z,58.84
2016-10-19T11:13:36.435Z,58.65
2016-10-19T11:14:01.992Z,58.75
2016-10-19T11:14:27.556Z,58.65
2016-10-19T11:14:53.148Z,58.45
2016-10-19T11:15:18.707Z,58.84
2016-10-19T11:15:44.278Z,59.13
2016-10-19T11:16:09.817Z,58.65
2016-10-19T11:16:35.369Z,59.03
2016-10-19T11:17:00.924Z,58.84
2016-10-19T11:17:26.468Z,59.03
2016-10-19T11:17:52.019Z,58.81
2016-10-19T11:18:17.582Z,58.33
2016-10-19T11:18:43.247Z,58.55
2016-10-19T11:19:08.797Z,58.72
2016-10-19T11:19:34.411Z,58.52
2016-10-19T11:19:59.981Z,58.33
2016-10-19T11:20:25.545Z,58.42
2016-10-19T11:20:51.101Z,58.52
2016-10-19T11:21:16.747Z,58.72
2016-10-19T11:21:42.325Z,58.72
2016-10-19T11:22:07.877Z,58.62
2016-10-19T11:22:33.421Z,58.33
2016-10-19T11:22:58.978Z,58.75
2016-10-19T11:23:24.542Z,58.42
2016-10-19T11:23:50.105Z,58.62
2016-10-19T11:24:15.762Z,58.72
2016-10-19T11:24:41.327Z,58.81
2016-10-19T11:25:06.952Z,58.81
2016-10-19T11:25:32.544Z,58.81
2016-10-19T11:25:58.114Z,58.72
2016-10-19T11:26:23.687Z,58.72
2016-10-19T11:26:49.240Z,58.81
2016-10-19T11:27:14.813Z,58.62
2016-10-19T11:27:40.372Z,58.52
2016-10-19T11:28:05.932Z,58.81
2016-10-19T11:28:31.477Z,58.62
2016-10-19T11:28:57.034Z,58.91
2016-10-19T11:29:22.599Z,58.52
2016-10-19T11:29:48.154Z,58.81
2016-10-19T11:30:13.696Z,58.91
2016-10-19T11:30:39.277Z,58.91
2016-10-19T11:31:04.827Z,58.91
2016-10-19T11:31:30.500Z,58.72
2016-10-19T11:31:56.050Z,58.81
2016-10-19T11:32:21.617Z,58.81
2016-10-19T11:32:47.189Z,59
2016-10-19T11:33:12.735Z,59.2
2016-10-19T11:34:26.165Z,59.39
2016-10-19T11:34:51.722Z,59.2
2016-10-19T11:35:17.257Z,59.39
2016-10-19T11:35:42.868Z,59.3
2016-10-19T11:36:35.836Z,59.2
2016-10-19T11:38:42.880Z,59.39
2016-10-19T11:39:08.480Z,59.3
2016-10-19T11:39:34.061Z,59.39
2016-10-19T11:39:59.621Z,59.1
2016-10-19T11:40:25.253Z,59.3
2016-10-19T11:40:50.817Z,59.3
2016-10-19T11:41:16.387Z,59.3
2016-10-19T11:41:41.970Z,59.2
2016-10-19T11:42:07.542Z,59.3
2016-10-19T11:42:33.112Z,59.39
2016-10-19T11:42:58.715Z,59.1
2016-10-19T11:43:24.379Z,59.1
2016-10-19T11:43:49.937Z,59.3
2016-10-19T11:44:15.534Z,59.39
2016-10-19T11:45:28.933Z,59.2
2016-10-19T11:45:54.494Z,59.3
2016-10-19T11:46:20.055Z,59.1
2016-10-19T11:46:45.610Z,59.1
2016-10-19T11:47:11.173Z,59.17
2016-10-19T11:47:36.760Z,59.2
2016-10-19T11:48:02.338Z,59.39
2016-10-19T11:48:27.876Z,59.2
2016-10-19T11:48:53.436Z,59.17
2016-10-19T11:49:18.993Z,59.3
2016-10-19T11:49:44.540Z,59.3
2016-10-19T11:50:10.132Z,59.2
2016-10-19T11:50:35.743Z,59.07
2016-10-19T11:51:01.598Z,59.39
2016-10-19T11:51:27.152Z,59.2
2016-10-19T11:51:52.794Z,59.1
2016-10-19T11:52:18.348Z,59.1
2016-10-19T11:52:43.900Z,59.07
2016-10-19T11:53:09.444Z,59.27
2016-10-19T11:53:34.980Z,59.3
2016-10-19T11:54:00.548Z,59.27
2016-10-19T11:54:26.158Z,59.2
2016-10-19T11:55:29.394Z,59.17
2016-10-19T11:55:54.959Z,59.07
2016-10-19T11:56:20.504Z,59.17
2016-10-19T11:56:46.105Z,59.17
2016-10-19T11:57:11.647Z,59.36
2016-10-19T11:57:37.214Z,59.36
2016-10-19T11:58:02.869Z,59.17
2016-10-19T11:58:28.447Z,59.07
2016-10-19T11:58:54.001Z,59.27
2016-10-19T11:59:19.556Z,59.2
2016-10-19T11:59:45.108Z,59.27
2016-10-19T12:00:10.661Z,59.27
2016-10-19T12:00:36.223Z,59.27
2016-10-19T12:01:01.865Z,59.27
2016-10-19T12:01:27.410Z,59.27
2016-10-19T12:01:52.979Z,59.07
2016-10-19T12:02:18.658Z,59.17
2016-10-19T12:02:44.212Z,59.27
2016-10-19T12:03:09.789Z,59.17
2016-10-19T12:03:35.367Z,59.07
2016-10-19T12:04:00.941Z,59.07
2016-10-19T12:04:26.478Z,59.17
2016-10-19T12:04:52.005Z,59.07
2016-10-19T12:05:17.558Z,59.17
2016-10-19T12:05:43.116Z,59.27
2016-10-19T12:06:08.686Z,59.27
2016-10-19T12:06:34.273Z,58.97
2016-10-19T12:06:59.826Z,59.27
2016-10-19T12:07:25.378Z,58.97
2016-10-19T12:07:51.046Z,59.07
2016-10-19T12:08:16.613Z,59.36
2016-10-19T12:08:42.179Z,59.07
2016-10-19T12:09:07.771Z,58.78
2016-10-19T12:09:33.340Z,59.17
2016-10-19T12:09:58.985Z,59.27
2016-10-19T12:10:24.534Z,59.17
2016-10-19T12:10:50.104Z,59.07
2016-10-19T12:11:15.672Z,59.27
2016-10-19T12:11:41.229Z,59.75
2016-10-19T12:12:06.798Z,59.17
2016-10-19T12:12:32.337Z,59.65
2016-10-19T12:12:57.893Z,59.65
2016-10-19T12:13:23.453Z,59.75
2016-10-19T12:13:49.021Z,59.55
2016-10-19T12:14:14.531Z,59.55
2016-10-19T12:14:40.127Z,59.65
2016-10-19T12:15:05.638Z,59.75
2016-10-19T12:15:31.183Z,59.36
2016-10-19T12:15:56.748Z,59.45
2016-10-19T12:16:22.372Z,59.55
2016-10-19T12:16:47.935Z,59.36
2016-10-19T12:17:13.502Z,59.45
2016-10-19T12:17:39.072Z,59.55
2016-10-19T12:18:04.772Z,59.36
2016-10-19T12:18:30.415Z,59.55
2016-10-19T12:18:55.983Z,59.17
2016-10-19T12:19:21.563Z,59.27
2016-10-19T12:19:47.110Z,59.45
2016-10-19T12:20:12.695Z,59.45
2016-10-19T12:20:38.372Z,59.65
2016-10-19T12:21:03.951Z,59.62
2016-10-19T12:21:29.495Z,59.65
2016-10-19T12:21:55.134Z,59.84
2016-10-19T12:22:20.695Z,59.81
2016-10-19T12:22:46.262Z,59.52
2016-10-19T12:23:11.848Z,59.62
2016-10-19T12:23:37.470Z,59.52
2016-10-19T12:24:03.062Z,60.03
2016-10-19T12:24:28.726Z,59.75
2016-10-19T12:24:54.356Z,59.81
2016-10-19T12:25:19.923Z,59.81
2016-10-19T12:25:45.479Z,59.72
2016-10-19T12:26:11.040Z,60.3
2016-10-19T12:26:36.591Z,60.2
2016-10-19T12:27:02.132Z,60.1
2016-10-19T12:27:27.715Z,60
2016-10-19T12:27:53.278Z,60.2
2016-10-19T12:28:18.848Z,60.1
2016-10-19T12:28:44.395Z,59.52
2016-10-19T12:29:09.941Z,59.91
2016-10-19T12:29:35.501Z,59.91
2016-10-19T12:30:01.042Z,60
2016-10-19T12:30:26.587Z,59.62
2016-10-19T12:30:52.170Z,59.91
2016-10-19T12:31:17.688Z,60.3
2016-10-19T12:31:43.290Z,60.3
2016-10-19T12:32:08.868Z,60.58
2016-10-19T12:32:34.437Z,60.58
2016-10-19T12:33:32.587Z,60.39
2016-10-19T12:33:58.142Z,60.49
2016-10-19T12:34:23.698Z,60.1
2016-10-19T12:35:31.956Z,60.3
2016-10-19T12:35:57.511Z,60.39
2016-10-19T12:36:23.186Z,60.49
2016-10-19T12:36:48.753Z,60.49
2016-10-19T12:37:14.308Z,60.2
2016-10-19T12:37:39.865Z,60.39
2016-10-19T12:38:05.436Z,60.49
2016-10-19T12:38:31.011Z,60.49
2016-10-19T12:38:56.611Z,60.68
2016-10-19T12:39:22.167Z,60.58
2016-10-19T12:39:47.718Z,60.49
2016-10-19T12:40:13.320Z,60.58
2016-10-19T12:40:38.888Z,60.87
2016-10-19T12:41:36.996Z,60.58
2016-10-19T12:42:02.586Z,60.77
2016-10-19T12:42:28.208Z,60.77
2016-10-19T12:42:53.765Z,60.97
2016-10-19T12:43:19.315Z,60.49
2016-10-19T12:43:44.995Z,60.87
2016-10-19T12:44:10.621Z,60.97
2016-10-19T12:44:36.161Z,60.49
2016-10-19T12:45:01.699Z,60.87
2016-10-19T12:45:27.345Z,60.97
2016-10-19T12:45:52.890Z,60.97
2016-10-19T12:46:18.438Z,60.58
2016-10-19T12:46:43.999Z,60.58
2016-10-19T12:47:09.568Z,60.58
2016-10-19T12:47:35.147Z,60.68
2016-10-19T12:48:00.708Z,60.68
2016-10-19T12:48:26.258Z,60.97
2016-10-19T12:48:51.860Z,61.16
2016-10-19T12:49:17.416Z,60.87
2016-10-19T12:49:43.000Z,61.07
2016-10-19T12:50:08.578Z,60.87
2016-10-19T12:50:34.117Z,60.87
2016-10-19T12:50:59.663Z,60.87
2016-10-19T12:51:25.217Z,60.87
2016-10-19T12:51:50.774Z,60.68
2016-10-19T12:52:16.305Z,60.58
2016-10-19T12:52:41.861Z,60.97
2016-10-19T12:53:07.418Z,60.77
2016-10-19T12:53:32.970Z,60.68
2016-10-19T12:53:58.609Z,60.68
2016-10-19T12:54:24.162Z,60.58
2016-10-19T12:54:49.687Z,60.58
2016-10-19T12:55:15.212Z,60.68
2016-10-19T12:55:40.822Z,60.77
2016-10-19T12:56:06.460Z,61.07
2016-10-19T12:56:32.025Z,60.87
2016-10-19T12:56:57.569Z,60.58
2016-10-19T12:57:23.107Z,60.87
2016-10-19T12:57:48.658Z,60.87
2016-10-19T12:58:14.245Z,60.68
2016-10-19T12:58:39.780Z,60.77
2016-10-19T12:59:05.306Z,60.87
2016-10-19T12:59:30.847Z,60.87
2016-10-19T12:59:56.412Z,60.68
2016-10-19T13:00:21.944Z,60.68
2016-10-19T13:01:30.287Z,60.68
2016-10-19T13:01:55.834Z,60.58
2016-10-19T13:02:21.391Z,60.87
2016-10-19T13:02:46.951Z,60.97
2016-10-19T13:03:12.518Z,60.87
2016-10-19T13:03:38.077Z,60.68
2016-10-19T13:04:03.641Z,60.97
2016-10-19T13:04:29.215Z,60.68
2016-10-19T13:04:54.866Z,60.68
2016-10-19T13:05:20.471Z,60.39
2016-10-19T13:05:46.022Z,60.39
2016-10-19T13:06:11.570Z,60.39
2016-10-19T13:06:37.134Z,60.2
2016-10-19T13:07:02.732Z,60.2
2016-10-19T13:07:28.303Z,60.58
2016-10-19T13:07:53.867Z,60.3
2016-10-19T13:08:19.431Z,60.39
2016-10-19T13:08:45.007Z,60.58
2016-10-19T13:09:10.553Z,60.68
2016-10-19T13:09:36.121Z,60.68
2016-10-19T13:10:01.680Z,60.58
2016-10-19T13:10:27.365Z,60.49
2016-10-19T13:10:52.943Z,60
2016-10-19T13:11:18.490Z,59.91
2016-10-19T13:11:44.063Z,59.81
2016-10-19T13:12:09.644Z,59.62
2016-10-19T13:12:35.227Z,59.91
2016-10-19T13:13:00.756Z,60.1
2016-10-19T13:13:26.320Z,59.72
2016-10-19T13:13:51.895Z,60.2
2016-10-19T13:14:17.461Z,59.91
2016-10-19T13:14:43.015Z,60.3
2016-10-19T13:15:08.569Z,59.81
2016-10-19T13:15:34.135Z,59.72
2016-10-19T13:15:59.691Z,60
2016-10-19T13:16:25.347Z,60.3
2016-10-19T13:16:50.904Z,59.81
2016-10-19T13:17:16.462Z,59.81
2016-10-19T13:17:42.053Z,59.94
2016-10-19T13:18:07.911Z,59.52
2016-10-19T13:18:33.464Z,59.65
2016-10-19T13:18:59.041Z,59.62
2016-10-19T13:19:24.600Z,59.62
2016-10-19T13:19:50.162Z,59.65
2016-10-19T13:20:15.721Z,59.52
2016-10-19T13:20:41.266Z,59.75
2016-10-19T13:21:06.871Z,59.65
2016-10-19T13:21:32.456Z,59.55
2016-10-19T13:21:58.156Z,59.81
2016-10-19T13:22:23.740Z,59.43
2016-10-19T13:22:49.316Z,59.65
2016-10-19T13:23:14.879Z,59.65
2016-10-19T13:23:40.568Z,59.65
2016-10-19T13:24:06.145Z,59.84
2016-10-19T13:24:31.697Z,59.45
2016-10-19T13:24:57.261Z,59.36
2016-10-19T13:25:22.823Z,59.55
2016-10-19T13:25:48.383Z,59.17
2016-10-19T13:26:13.944Z,59.65
2016-10-19T13:26:39.495Z,59.36
2016-10-19T13:27:05.055Z,59.45
2016-10-19T13:27:30.600Z,59.27
2016-10-19T13:27:56.174Z,59.65
2016-10-19T13:28:21.736Z,59.45
2016-10-19T13:28:47.296Z,59.75
2016-10-19T13:29:12.830Z,59.55
2016-10-19T13:29:38.376Z,59.55
2016-10-19T13:30:03.945Z,59.75
2016-10-19T13:30:29.583Z,59.17
2016-10-19T13:30:55.145Z,58.88
2016-10-19T13:31:20.712Z,59.07
2016-10-19T13:31:46.290Z,58.88
2016-10-19T13:32:11.829Z,59.36
2016-10-19T13:32:37.387Z,59.36
2016-10-19T13:33:02.954Z,58.88
2016-10-19T13:33:28.502Z,58.97
2016-10-19T13:33:54.079Z,58.88
2016-10-19T13:34:19.653Z,59.17
2016-10-19T13:35:33.061Z,59.17
2016-10-19T13:35:58.694Z,58.88
2016-10-19T13:36:24.230Z,58.88
2016-10-19T13:36:49.810Z,59.07
2016-10-19T13:37:15.374Z,59.27
2016-10-19T13:37:41.056Z,59.36
2016-10-19T13:38:06.619Z,59.07
2016-10-19T13:38:32.156Z,59.27
2016-10-19T13:38:57.733Z,59.27
2016-10-19T13:39:23.371Z,59.07
2016-10-19T13:39:48.905Z,59.27
2016-10-19T13:40:14.466Z,59.27
2016-10-19T13:40:40.043Z,59.07
2016-10-19T13:41:05.591Z,59.17
2016-10-19T13:41:31.183Z,59.27
2016-10-19T13:41:56.755Z,59.27
2016-10-19T13:42:22.314Z,59.07
2016-10-19T13:42:47.932Z,59.07
2016-10-19T13:43:13.507Z,59.17
2016-10-19T13:43:39.051Z,59.27
2016-10-19T13:44:04.634Z,59.27
2016-10-19T13:44:30.175Z,58.88
2016-10-19T13:44:55.855Z,59.17
2016-10-19T13:45:21.425Z,59.17
2016-10-19T13:45:47.008Z,59.27
2016-10-19T13:46:12.656Z,59.27
2016-10-19T13:46:38.207Z,59.17
2016-10-19T13:47:03.787Z,59.27
2016-10-19T13:47:29.331Z,59.27
2016-10-19T13:47:54.910Z,59.27
2016-10-19T13:48:20.576Z,59.17
2016-10-19T13:48:46.134Z,59.17
2016-10-19T13:49:11.700Z,59.27
2016-10-19T13:49:37.256Z,59.17
2016-10-19T13:50:02.815Z,59.27
2016-10-19T13:50:28.370Z,59.27
2016-10-19T13:50:53.967Z,59.17
2016-10-19T13:51:19.555Z,58.97
2016-10-19T13:51:45.124Z,58.88
2016-10-19T13:52:10.750Z,58.88
2016-10-19T13:52:36.337Z,58.4
2016-10-19T13:53:01.892Z,58.69
2016-10-19T13:53:27.565Z,58.88
2016-10-19T13:53:53.138Z,58.69
2016-10-19T13:54:18.702Z,58.78
2016-10-19T13:54:44.277Z,58.62
2016-10-19T13:55:09.849Z,58.23
2016-10-19T13:55:35.411Z,58.33
2016-10-19T13:56:00.956Z,58.59
2016-10-19T13:56:26.540Z,58.42
2016-10-19T13:56:52.097Z,58.52
2016-10-19T13:57:17.662Z,58.52
2016-10-19T13:57:43.230Z,58.91
2016-10-19T13:58:08.792Z,58.72
2016-10-19T13:58:34.353Z,58.81
2016-10-19T13:58:59.905Z,58.42
2016-10-19T13:59:25.450Z,58.42
2016-10-19T13:59:51.010Z,58.72
2016-10-19T14:00:16.568Z,58.91
2016-10-19T14:00:42.144Z,58.04
2016-10-19T14:01:07.749Z,58.72
2016-10-19T14:01:33.320Z,58.23
2016-10-19T14:01:58.944Z,57.94
2016-10-19T14:02:24.513Z,58.17
2016-10-19T14:02:50.044Z,57.75
2016-10-19T14:03:15.663Z,57.75
2016-10-19T14:03:41.241Z,57.68
2016-10-19T14:04:06.843Z,57.87
2016-10-19T14:04:32.492Z,57.87
2016-10-19T14:04:58.064Z,57.87
2016-10-19T14:05:23.622Z,57.87
2016-10-19T14:05:49.168Z,58.07
2016-10-19T14:06:14.740Z,57.68
2016-10-19T14:06:40.302Z,57.49
2016-10-19T14:07:05.866Z,57.39
2016-10-19T14:07:31.425Z,57.97
2016-10-19T14:07:56.981Z,57.87
2016-10-19T14:08:22.558Z,57.59
2016-10-19T14:08:48.157Z,57.78
2016-10-19T14:09:13.741Z,57.29
2016-10-19T14:09:39.294Z,57.2
2016-10-19T14:10:04.865Z,57.01
2016-10-19T14:10:30.469Z,57.29
2016-10-19T14:10:56.042Z,57.2
2016-10-19T14:11:21.613Z,57.29
2016-10-19T14:11:47.184Z,57.1
2016-10-19T14:12:12.790Z,57.01
2016-10-19T14:12:38.339Z,57.39
2016-10-19T14:13:03.899Z,57.39
2016-10-19T14:13:29.425Z,57.1
2016-10-19T14:13:54.992Z,57.59
2016-10-19T14:14:20.603Z,57.1
2016-10-19T14:14:46.153Z,57.29
2016-10-19T14:15:11.735Z,57.29
2016-10-19T14:15:37.418Z,57.2
2016-10-19T14:16:03.015Z,57.2
2016-10-19T14:16:28.539Z,57.2
2016-10-19T14:16:54.116Z,57.1
2016-10-19T14:17:19.694Z,57.1
2016-10-19T14:17:45.234Z,57.39
2016-10-19T14:18:10.786Z,57.01
2016-10-19T14:18:36.369Z,57.29
2016-10-19T14:19:01.921Z,57.39
2016-10-19T14:19:27.524Z,57.29
2016-10-19T14:19:53.062Z,57.2
2016-10-19T14:20:18.636Z,57.1
2016-10-19T14:20:44.313Z,57.29
2016-10-19T14:21:09.868Z,57.1
2016-10-19T14:21:35.435Z,57.1
2016-10-19T14:22:00.988Z,57.01
2016-10-19T14:22:26.544Z,56.91
2016-10-19T14:22:52.118Z,56.62
2016-10-19T14:23:17.683Z,56.72
2016-10-19T14:23:43.318Z,56.94
2016-10-19T14:24:08.870Z,57.1
2016-10-19T14:24:34.492Z,56.91
2016-10-19T14:25:00.034Z,57.04
2016-10-19T14:25:25.599Z,56.81
2016-10-19T14:25:51.162Z,56.62
2016-10-19T14:26:16.700Z,56.33
2016-10-19T14:26:42.288Z,56.36
2016-10-19T14:27:08.673Z,56.36
2016-10-19T14:27:34.238Z,56.56
2016-10-19T14:28:32.381Z,56.46
2016-10-19T14:28:57.929Z,56.36
2016-10-19T14:29:23.496Z,56.46
2016-10-19T14:29:49.068Z,56.36
2016-10-19T14:30:14.615Z,56.36
2016-10-19T14:30:40.202Z,56.36
2016-10-19T14:31:05.841Z,56.36
2016-10-19T14:31:31.398Z,56.36
2016-10-19T14:32:34.574Z,56.46
2016-10-19T14:33:00.231Z,56.46
2016-10-19T14:33:25.880Z,56.36
2016-10-19T14:33:51.412Z,56.36
2016-10-19T14:34:16.988Z,56.36
2016-10-19T14:34:42.559Z,56.36
2016-10-19T14:35:08.103Z,56.43
2016-10-19T14:35:33.644Z,56.33
2016-10-19T14:35:59.202Z,56.33
2016-10-19T14:36:24.755Z,56.33
2016-10-19T14:36:50.407Z,57.1
2016-10-19T14:37:15.967Z,56.91
2016-10-19T14:37:41.519Z,56.91
2016-10-19T14:38:07.095Z,57.01
2016-10-19T14:38:32.728Z,57.1
2016-10-19T14:38:58.311Z,56.91
2016-10-19T14:39:23.845Z,57.01
2016-10-19T14:40:32.172Z,57.29
2016-10-19T14:42:45.661Z,57.39
2016-10-19T14:43:11.222Z,57.2
2016-10-19T14:43:36.792Z,57.29
2016-10-19T14:44:02.491Z,57.29
2016-10-19T14:44:28.052Z,57.49
2016-10-19T14:44:53.794Z,57.01
2016-10-19T14:45:19.356Z,57.1
2016-10-19T14:45:44.955Z,57.1
2016-10-19T14:46:10.512Z,56.91
2016-10-19T14:46:36.062Z,57.1
2016-10-19T14:47:01.626Z,57.2
2016-10-19T14:47:27.215Z,56.81
2016-10-19T14:47:52.767Z,57.1
2016-10-19T14:48:18.345Z,57.1
2016-10-19T14:48:43.966Z,56.91
2016-10-19T14:49:09.531Z,57.2
2016-10-19T14:49:35.091Z,56.91
2016-10-19T14:50:00.654Z,57.29
2016-10-19T14:50:26.207Z,56.91
2016-10-19T14:50:51.756Z,56.91
2016-10-19T14:51:17.295Z,57.1
2016-10-19T14:51:42.898Z,57.29
2016-10-19T14:52:08.432Z,57.27
2016-10-19T14:52:33.992Z,57.2
2016-10-19T14:52:59.587Z,57.07
2016-10-19T14:53:25.134Z,57.29
2016-10-19T14:53:50.804Z,57.68
2016-10-19T14:54:16.346Z,57.59
2016-10-19T14:54:41.925Z,57.46
2016-10-19T14:55:07.486Z,57.56
2016-10-19T14:55:33.060Z,57.27
2016-10-19T14:55:58.644Z,57.56
2016-10-19T14:56:24.203Z,57.46
2016-10-19T14:56:49.764Z,57.65
2016-10-19T14:57:15.308Z,57.65
2016-10-19T14:57:40.881Z,57.75
2016-10-19T14:58:06.446Z,57.65
2016-10-19T14:58:32.033Z,57.75
2016-10-19T14:58:57.618Z,57.65
2016-10-19T14:59:23.185Z,57.78
2016-10-19T14:59:48.744Z,57.65
2016-10-19T15:00:14.322Z,57.56
2016-10-19T15:00:40.759Z,57.85
2016-10-19T15:01:05.404Z,57.56
2016-10-19T15:01:30.919Z,57.56
2016-10-19T15:01:56.467Z,57.65
2016-10-19T15:02:22.051Z,57.75
2016-10-19T15:02:47.676Z,57.56
2016-10-19T15:03:13.242Z,57.75
2016-10-19T15:03:38.797Z,57.75
2016-10-19T15:04:04.463Z,57.56
2016-10-19T15:04:30.034Z,57.56
2016-10-19T15:04:55.591Z,57.85
2016-10-19T15:05:21.161Z,57.75
2016-10-19T15:05:46.746Z,57.75
2016-10-19T15:06:12.319Z,57.75
2016-10-19T15:06:37.972Z,57.65
2016-10-19T15:07:03.546Z,57.65
2016-10-19T15:07:29.118Z,57.75
2016-10-19T15:07:54.817Z,57.75
2016-10-19T15:08:20.395Z,57.65
2016-10-19T15:08:45.975Z,57.65
2016-10-19T15:09:11.543Z,57.56
2016-10-19T15:09:37.120Z,57.65
2016-10-19T15:10:02.685Z,57.65
2016-10-19T15:10:28.316Z,57.37
2016-10-19T15:10:53.879Z,57.65
2016-10-19T15:11:19.444Z,57.56
2016-10-19T15:11:44.998Z,57.17
2016-10-19T15:12:38.143Z,57.75
2016-10-19T15:13:03.678Z,57.75
2016-10-19T15:13:29.236Z,57.94
2016-10-19T15:13:54.795Z,57.75
2016-10-19T15:14:20.448Z,57.85
2016-10-19T15:14:46.014Z,57.85
2016-10-19T15:15:11.582Z,57.94
2016-10-19T15:15:37.226Z,57.75
2016-10-19T15:16:30.201Z,57.75
2016-10-19T15:16:55.774Z,57.53
2016-10-19T15:17:21.342Z,57.92
2016-10-19T15:17:46.894Z,57.72
2016-10-19T15:18:12.463Z,57.62
2016-10-19T15:18:38.013Z,58.01
2016-10-19T15:19:03.577Z,57.82
2016-10-19T15:19:29.303Z,58.01
2016-10-19T15:19:54.858Z,57.92
2016-10-19T15:20:20.405Z,57.82
2016-10-19T15:20:46.764Z,57.92
2016-10-19T15:21:12.318Z,58.3
2016-10-19T15:21:37.884Z,57.92
2016-10-19T15:22:03.474Z,58.11
2016-10-19T15:22:28.995Z,58.3
2016-10-19T15:22:54.555Z,58.01
2016-10-19T15:23:20.109Z,58.78
2016-10-19T15:23:45.642Z,58.78
2016-10-19T15:24:11.205Z,58.78
2016-10-19T15:24:36.800Z,58.49
2016-10-19T15:25:02.342Z,58.69
2016-10-19T15:25:27.888Z,58.78
2016-10-19T15:25:53.433Z,58.69
2016-10-19T15:26:19.087Z,58.4
2016-10-19T15:26:44.632Z,58.4
2016-10-19T15:27:10.207Z,59.07
2016-10-19T15:27:35.742Z,58.97
2016-10-19T15:28:01.297Z,58.4
2016-10-19T15:28:26.933Z,58.59
2016-10-19T15:28:52.469Z,58.3
2016-10-19T15:29:17.991Z,58.49
2016-10-19T15:29:43.524Z,58.3
2016-10-19T15:30:09.130Z,58.4
2016-10-19T15:30:34.682Z,58.4
2016-10-19T15:31:00.226Z,58.3
2016-10-19T15:31:25.796Z,58.3
2016-10-19T15:31:51.307Z,58.2
2016-10-19T15:32:16.847Z,58.3
2016-10-19T15:32:42.409Z,58.49
2016-10-19T15:33:07.959Z,58.78
2016-10-19T15:33:33.512Z,58.56
2016-10-19T15:33:59.053Z,58.75
2016-10-19T15:34:24.614Z,58.75
2016-10-19T15:34:50.188Z,58.85
2016-10-19T15:35:15.860Z,59.17
2016-10-19T15:35:41.400Z,59.23
2016-10-19T15:36:06.933Z,59.23
2016-10-19T15:36:32.692Z,59.23
2016-10-19T15:36:58.268Z,59.14
2016-10-19T15:37:23.820Z,59.14
2016-10-19T15:37:49.465Z,59.33
2016-10-19T15:38:15.073Z,58.85
2016-10-19T15:38:40.615Z,58.85
2016-10-19T15:39:06.177Z,59.72
2016-10-19T15:39:31.733Z,59.52
2016-10-19T15:39:57.324Z,59.62
2016-10-19T15:40:22.875Z,59.62
2016-10-19T15:40:48.445Z,59.52
2016-10-19T15:41:14.011Z,59.43
2016-10-19T15:41:39.574Z,59.14
2016-10-19T15:42:05.129Z,59.23
2016-10-19T15:42:30.691Z,59.23
2016-10-19T15:42:56.268Z,59.23
2016-10-19T15:43:21.832Z,59.23
2016-10-19T15:43:47.388Z,59.43
2016-10-19T15:44:12.927Z,59.52
2016-10-19T15:44:38.485Z,59.52
2016-10-19T15:45:04.061Z,59.62
2016-10-19T15:45:29.751Z,59.62
2016-10-19T15:45:55.308Z,59.81
2016-10-19T15:46:20.853Z,59.52
2016-10-19T15:46:46.421Z,59.62
2016-10-19T15:47:11.989Z,59.91
2016-10-19T15:47:37.595Z,59.91
2016-10-19T15:48:03.188Z,60.3
2016-10-19T15:48:28.752Z,60.2
2016-10-19T15:48:54.335Z,60.1
2016-10-19T15:49:20.012Z,60.1
2016-10-19T15:49:45.629Z,59.91
2016-10-19T15:50:11.201Z,59.88
2016-10-19T15:50:36.772Z,59.91
2016-10-19T15:51:02.354Z,59.91
2016-10-19T15:51:27.942Z,59.81
2016-10-19T15:51:53.504Z,60.58
2016-10-19T15:52:19.096Z,60
2016-10-19T15:52:44.666Z,60
2016-10-19T15:53:10.224Z,60.49
2016-10-19T15:53:36.523Z,60.49
2016-10-19T15:54:02.144Z,60.3
2016-10-19T15:54:27.707Z,60.39
2016-10-19T15:54:53.274Z,60.58
2016-10-19T15:55:18.824Z,60.49
2016-10-19T15:55:44.533Z,60.39
2016-10-19T15:56:10.088Z,60.58
2016-10-19T15:56:35.706Z,60.58
2016-10-19T15:57:01.305Z,60.07
2016-10-19T15:57:26.865Z,60.36
2016-10-19T15:57:52.447Z,60.2
2016-10-19T15:58:20.340Z,60.46
2016-10-19T15:58:43.834Z,60.36
2016-10-19T15:59:09.772Z,60.36
2016-10-19T15:59:35.369Z,60.65
2016-10-19T16:00:00.938Z,60.46
2016-10-19T16:00:26.697Z,60.65
2016-10-19T16:00:52.436Z,60.65
2016-10-19T16:01:18.169Z,60.84
2016-10-19T16:01:43.954Z,60.94
2016-10-19T16:02:09.646Z,60.94
2016-10-19T16:02:35.232Z,60.94
2016-10-19T16:03:00.948Z,60.94
2016-10-19T16:03:26.556Z,60.84
2016-10-19T16:03:52.160Z,60.75
2016-10-19T16:04:17.695Z,60.94
2016-10-19T16:05:31.087Z,60.55
2016-10-19T16:05:56.650Z,60.75
2016-10-19T16:06:22.297Z,60.65
2016-10-19T16:06:47.942Z,60.84
2016-10-19T16:07:13.504Z,60.75
2016-10-19T16:07:39.110Z,60.84
2016-10-19T16:08:04.669Z,60.75
2016-10-19T16:08:30.229Z,60.84
2016-10-19T16:08:57.055Z,60.94
2016-10-19T16:09:22.772Z,60.94
2016-10-19T16:09:48.680Z,60.84
2016-10-19T16:10:14.297Z,60.84
2016-10-19T16:10:39.963Z,60.94
2016-10-19T16:11:05.799Z,60.75
2016-10-19T16:11:31.516Z,60.75
2016-10-19T16:11:57.314Z,60.55
2016-10-19T16:12:23.308Z,60.65
2016-10-19T16:12:49.040Z,60.55
2016-10-19T16:13:14.501Z,60.65
2016-10-19T16:13:40.165Z,60.84
2016-10-19T16:14:05.692Z,60.65
2016-10-19T16:14:31.238Z,60.55
2016-10-19T16:14:56.781Z,60.46
2016-10-19T16:15:22.336Z,60.84
2016-10-19T16:15:47.881Z,60.55
2016-10-19T16:16:13.434Z,60.75
2016-10-19T16:16:38.975Z,60.94
2016-10-19T16:17:04.543Z,61.04
2016-10-19T16:17:30.134Z,60.55
2016-10-19T16:17:55.675Z,60.94
2016-10-19T16:18:21.361Z,60.84
2016-10-19T16:18:46.953Z,60.94
2016-10-19T16:19:12.499Z,60.65
2016-10-19T16:19:38.061Z,61.42
2016-10-19T16:20:03.614Z,60.72
2016-10-19T16:20:29.182Z,61.32
2016-10-19T16:20:54.761Z,61.32
2016-10-19T16:21:20.302Z,61.42
2016-10-19T16:21:45.901Z,61.32
2016-10-19T16:22:11.494Z,61.42
2016-10-19T16:22:37.059Z,61.32
2016-10-19T16:23:02.628Z,61.32
2016-10-19T16:23:28.194Z,61.42
2016-10-19T16:23:53.745Z,61.13
2016-10-19T16:24:19.425Z,61.13
2016-10-19T16:24:44.998Z,61.1
2016-10-19T16:25:10.575Z,61.13
2016-10-19T16:25:36.118Z,61.29
2016-10-19T16:26:34.313Z,61.32
2016-10-19T16:26:59.988Z,61.32
2016-10-19T16:27:25.560Z,61.19
2016-10-19T16:27:51.187Z,61.29
2016-10-19T16:28:16.779Z,60.91
2016-10-19T16:28:42.433Z,61.1
2016-10-19T16:29:07.994Z,60.91
2016-10-19T16:29:33.564Z,61.39
2016-10-19T16:29:59.174Z,60.91
2016-10-19T16:30:24.825Z,61
2016-10-19T16:30:50.578Z,61
2016-10-19T16:31:16.131Z,61
2016-10-19T16:31:41.665Z,61.1
2016-10-19T16:32:07.246Z,61.1
2016-10-19T16:32:32.759Z,61.1